sensor_id;sensor_type;location;lat;lon;timestamp;pressure;altitude;pressure_sealevel;temperature;humidity
19884;BME280;10104;50.732;10.174;2022-10-16T00:01:38;97573.34;;;16.80;100.00
19884;BME280;10104;50.732;10.174;2022-10-16T00:04:01;97570.91;;;16.90;100.00
19884;BME280;10104;50.732;10.174;2022-10-16T00:06:24;97582.53;;;16.84;100.00
19884;BME280;10104;50.732;10.174;2022-10-16T00:08:47;97586.81;;;16.85;100.00
19884;BME280;10104;50.732;10.174;2022-10-16T00:11:17;97583.22;;;16.80;100.00
19884;BME280;10104;50.732;10.174;2022-10-16T00:13:40;97573.22;;;16.87;100.00
19884;BME280;10104;50.732;10.174;2022-10-16T00:16:02;97573.91;;;16.94;100.00
19884;BME280;10104;50.732;10.174;2022-10-16T00:18:24;97581.66;;;17.07;100.00
19884;BME280;10104;50.732;10.174;2022-10-16T00:20:46;97580.06;;;16.94;100.00
19884;BME280;10104;50.732;10.174;2022-10-16T00:23:07;97584.59;;;16.94;100.00
19884;BME280;10104;50.732;10.174;2022-10-16T00:25:29;97587.84;;;17.08;99.72
19884;BME280;10104;50.732;10.174;2022-10-16T00:27:53;97591.47;;;16.90;100.00
19884;BME280;10104;50.732;10.174;2022-10-16T00:30:15;97585.38;;;17.06;99.54
19884;BME280;10104;50.732;10.174;2022-10-16T00:32:36;97588.66;;;17.08;99.39
19884;BME280;10104;50.732;10.174;2022-10-16T00:34:58;97587.47;;;17.04;99.65
19884;BME280;10104;50.732;10.174;2022-10-16T00:37:20;97594.69;;;17.15;98.97
19884;BME280;10104;50.732;10.174;2022-10-16T00:39:41;97587.22;;;17.17;98.42
19884;BME280;10104;50.732;10.174;2022-10-16T00:42:03;97593.69;;;17.33;97.79
19884;BME280;10104;50.732;10.174;2022-10-16T00:47:05;97583.25;;;17.20;97.55
19884;BME280;10104;50.732;10.174;2022-10-16T00:49:26;97578.59;;;17.27;96.38
19884;BME280;10104;50.732;10.174;2022-10-16T00:51:52;97584.72;;;17.39;95.70
19884;BME280;10104;50.732;10.174;2022-10-16T00:54:22;97586.13;;;17.30;95.29
19884;BME280;10104;50.732;10.174;2022-10-16T00:56:45;97600.44;;;17.24;95.24
19884;BME280;10104;50.732;10.174;2022-10-16T00:59:14;97600.81;;;17.27;94.41
19884;BME280;10104;50.732;10.174;2022-10-16T01:01:36;97601.41;;;17.18;94.73
19884;BME280;10104;50.732;10.174;2022-10-16T01:03:58;97598.38;;;17.26;94.76
19884;BME280;10104;50.732;10.174;2022-10-16T01:06:27;97598.13;;;17.16;94.90
19884;BME280;10104;50.732;10.174;2022-10-16T01:09:23;97601.19;;;17.19;94.57
19884;BME280;10104;50.732;10.174;2022-10-16T01:12:03;97601.69;;;16.93;96.17
19884;BME280;10104;50.732;10.174;2022-10-16T01:14:34;97600.97;;;16.97;96.25
19884;BME280;10104;50.732;10.174;2022-10-16T01:17:03;97609.91;;;17.15;94.64
19884;BME280;10104;50.732;10.174;2022-10-16T01:19:44;97607.94;;;17.10;94.90
19884;BME280;10104;50.732;10.174;2022-10-16T01:22:11;97626.88;;;17.20;93.88
19884;BME280;10104;50.732;10.174;2022-10-16T01:24:41;97629.69;;;17.14;94.13
19884;BME280;10104;50.732;10.174;2022-10-16T01:32:34;97615.28;;;17.15;93.83
19884;BME280;10104;50.732;10.174;2022-10-16T01:35:05;97621.03;;;17.23;93.00
19884;BME280;10104;50.732;10.174;2022-10-16T01:37:46;97631.59;;;17.02;94.46
19884;BME280;10104;50.732;10.174;2022-10-16T01:40:12;97623.91;;;16.93;95.30
19884;BME280;10104;50.732;10.174;2022-10-16T01:42:54;97631.88;;;17.17;93.92
19884;BME280;10104;50.732;10.174;2022-10-16T01:45:22;97623.16;;;17.10;94.58
19884;BME280;10104;50.732;10.174;2022-10-16T01:47:44;97625.84;;;17.10;94.59
19884;BME280;10104;50.732;10.174;2022-10-16T01:50:08;97627.13;;;17.19;93.89
19884;BME280;10104;50.732;10.174;2022-10-16T01:52:30;97629.09;;;17.12;94.23
19884;BME280;10104;50.732;10.174;2022-10-16T01:54:55;97632.47;;;17.19;94.08
19884;BME280;10104;50.732;10.174;2022-10-16T01:57:18;97628.38;;;17.16;94.40
19884;BME280;10104;50.732;10.174;2022-10-16T01:59:45;97633.97;;;17.26;94.11
19884;BME280;10104;50.732;10.174;2022-10-16T02:02:09;97634.69;;;17.22;94.15
19884;BME280;10104;50.732;10.174;2022-10-16T02:04:53;97628.22;;;17.34;93.84
19884;BME280;10104;50.732;10.174;2022-10-16T02:07:16;97626.13;;;17.36;94.01
19884;BME280;10104;50.732;10.174;2022-10-16T02:09:38;97623.91;;;17.45;93.26
19884;BME280;10104;50.732;10.174;2022-10-16T02:12:05;97623.41;;;17.48;92.77
19884;BME280;10104;50.732;10.174;2022-10-16T02:14:29;97639.56;;;17.53;92.66
19884;BME280;10104;50.732;10.174;2022-10-16T02:16:51;97645.50;;;17.55;92.20
19884;BME280;10104;50.732;10.174;2022-10-16T02:19:15;97639.91;;;17.57;92.46
19884;BME280;10104;50.732;10.174;2022-10-16T02:21:54;97629.34;;;17.50;92.61
19884;BME280;10104;50.732;10.174;2022-10-16T02:24:24;97636.66;;;17.55;92.23
19884;BME280;10104;50.732;10.174;2022-10-16T02:27:03;97631.31;;;17.55;91.82
19884;BME280;10104;50.732;10.174;2022-10-16T02:29:27;97640.16;;;17.55;92.19
19884;BME280;10104;50.732;10.174;2022-10-16T02:31:51;97628.09;;;17.41;92.68
19884;BME280;10104;50.732;10.174;2022-10-16T02:34:14;97638.09;;;17.46;92.62
19884;BME280;10104;50.732;10.174;2022-10-16T02:36:38;97637.28;;;17.45;92.57
19884;BME280;10104;50.732;10.174;2022-10-16T02:39:02;97642.38;;;17.47;92.56
19884;BME280;10104;50.732;10.174;2022-10-16T02:41:25;97645.31;;;17.45;92.55
19884;BME280;10104;50.732;10.174;2022-10-16T02:43:47;97645.50;;;17.55;92.07
19884;BME280;10104;50.732;10.174;2022-10-16T02:46:08;97639.00;;;17.51;92.58
19884;BME280;10104;50.732;10.174;2022-10-16T02:48:30;97633.88;;;17.61;91.99
19884;BME280;10104;50.732;10.174;2022-10-16T02:50:52;97633.06;;;17.61;91.90
19884;BME280;10104;50.732;10.174;2022-10-16T02:53:13;97638.88;;;17.58;91.88
19884;BME280;10104;50.732;10.174;2022-10-16T02:55:34;97646.91;;;17.58;91.89
19884;BME280;10104;50.732;10.174;2022-10-16T02:57:56;97648.41;;;17.54;92.06
19884;BME280;10104;50.732;10.174;2022-10-16T03:00:18;97644.00;;;17.48;92.53
19884;BME280;10104;50.732;10.174;2022-10-16T03:02:39;97646.09;;;17.57;91.61
19884;BME280;10104;50.732;10.174;2022-10-16T03:05:01;97638.41;;;17.61;91.18
19884;BME280;10104;50.732;10.174;2022-10-16T03:07:22;97637.09;;;17.75;90.61
19884;BME280;10104;50.732;10.174;2022-10-16T03:09:45;97634.63;;;17.73;90.52
19884;BME280;10104;50.732;10.174;2022-10-16T03:12:06;97635.94;;;17.59;91.21
19884;BME280;10104;50.732;10.174;2022-10-16T03:14:28;97642.84;;;17.55;91.59
19884;BME280;10104;50.732;10.174;2022-10-16T03:16:49;97644.22;;;17.58;91.29
19884;BME280;10104;50.732;10.174;2022-10-16T03:19:11;97665.19;;;17.61;91.38
19884;BME280;10104;50.732;10.174;2022-10-16T03:21:32;97657.25;;;17.66;90.87
19884;BME280;10104;50.732;10.174;2022-10-16T03:23:54;97650.13;;;17.60;91.34
19884;BME280;10104;50.732;10.174;2022-10-16T03:26:15;97636.72;;;17.71;90.65
19884;BME280;10104;50.732;10.174;2022-10-16T03:28:37;97643.97;;;17.59;91.32
19884;BME280;10104;50.732;10.174;2022-10-16T03:30:58;97646.44;;;17.61;91.19
19884;BME280;10104;50.732;10.174;2022-10-16T03:33:20;97639.69;;;17.58;91.25
19884;BME280;10104;50.732;10.174;2022-10-16T03:35:41;97639.69;;;17.58;91.26
19884;BME280;10104;50.732;10.174;2022-10-16T03:38:03;97632.94;;;17.56;91.46
19884;BME280;10104;50.732;10.174;2022-10-16T03:40:25;97640.66;;;17.40;92.29
19884;BME280;10104;50.732;10.174;2022-10-16T03:42:46;97643.09;;;17.42;92.46
19884;BME280;10104;50.732;10.174;2022-10-16T03:45:08;97641.19;;;17.54;91.61
19884;BME280;10104;50.732;10.174;2022-10-16T03:47:30;97638.25;;;17.39;92.65
19884;BME280;10104;50.732;10.174;2022-10-16T03:49:54;97644.88;;;17.36;92.69
19884;BME280;10104;50.732;10.174;2022-10-16T03:52:16;97658.28;;;17.25;93.54
19884;BME280;10104;50.732;10.174;2022-10-16T03:54:37;97657.09;;;17.32;92.95
19884;BME280;10104;50.732;10.174;2022-10-16T03:56:59;97671.06;;;17.23;93.42
19884;BME280;10104;50.732;10.174;2022-10-16T03:59:20;97673.06;;;17.16;94.04
19884;BME280;10104;50.732;10.174;2022-10-16T04:01:42;97667.81;;;17.32;93.02
19884;BME280;10104;50.732;10.174;2022-10-16T04:04:03;97664.91;;;17.34;93.05
19884;BME280;10104;50.732;10.174;2022-10-16T04:06:25;97670.72;;;17.31;93.15
19884;BME280;10104;50.732;10.174;2022-10-16T04:08:46;97669.88;;;17.42;92.46
19884;BME280;10104;50.732;10.174;2022-10-16T04:11:08;97666.16;;;17.43;92.24
19884;BME280;10104;50.732;10.174;2022-10-16T04:13:29;97680.22;;;17.50;92.01
19884;BME280;10104;50.732;10.174;2022-10-16T04:15:51;97670.22;;;17.46;92.07
19884;BME280;10104;50.732;10.174;2022-10-16T04:18:12;97680.13;;;17.45;92.15
19884;BME280;10104;50.732;10.174;2022-10-16T04:20:34;97691.25;;;17.54;91.57
19884;BME280;10104;50.732;10.174;2022-10-16T04:22:56;97694.06;;;17.47;91.85
19884;BME280;10104;50.732;10.174;2022-10-16T04:25:17;97698.38;;;17.48;91.86
19884;BME280;10104;50.732;10.174;2022-10-16T04:27:39;97697.69;;;17.53;91.43
19884;BME280;10104;50.732;10.174;2022-10-16T04:30:06;97707.47;;;17.35;92.40
19884;BME280;10104;50.732;10.174;2022-10-16T04:32:28;97714.38;;;17.31;92.71
19884;BME280;10104;50.732;10.174;2022-10-16T04:34:49;97712.63;;;17.25;93.09
19884;BME280;10104;50.732;10.174;2022-10-16T04:37:11;97722.28;;;17.26;93.20
19884;BME280;10104;50.732;10.174;2022-10-16T04:39:33;97733.00;;;17.15;94.07
19884;BME280;10104;50.732;10.174;2022-10-16T04:41:54;97733.19;;;17.36;92.94
19884;BME280;10104;50.732;10.174;2022-10-16T04:44:15;97721.56;;;17.31;93.28
19884;BME280;10104;50.732;10.174;2022-10-16T04:46:37;97730.63;;;17.42;92.44
19884;BME280;10104;50.732;10.174;2022-10-16T04:48:59;97718.53;;;17.39;92.84
19884;BME280;10104;50.732;10.174;2022-10-16T04:51:20;97729.91;;;17.58;91.70
19884;BME280;10104;50.732;10.174;2022-10-16T04:53:42;97751.56;;;17.56;92.33
19884;BME280;10104;50.732;10.174;2022-10-16T04:56:03;97737.69;;;17.59;92.15
19884;BME280;10104;50.732;10.174;2022-10-16T04:58:25;97730.41;;;17.31;94.62
19884;BME280;10104;50.732;10.174;2022-10-16T05:00:46;97729.59;;;17.31;94.57
19884;BME280;10104;50.732;10.174;2022-10-16T05:03:08;97729.38;;;17.32;94.31
19884;BME280;10104;50.732;10.174;2022-10-16T05:05:30;97744.50;;;17.38;94.05
19884;BME280;10104;50.732;10.174;2022-10-16T05:07:52;97760.56;;;17.38;94.19
19884;BME280;10104;50.732;10.174;2022-10-16T05:10:13;97771.16;;;17.33;94.71
19884;BME280;10104;50.732;10.174;2022-10-16T05:12:35;97772.53;;;17.36;94.54
19884;BME280;10104;50.732;10.174;2022-10-16T05:14:56;97758.22;;;17.42;94.17
19884;BME280;10104;50.732;10.174;2022-10-16T05:17:20;97757.50;;;17.47;93.69
19884;BME280;10104;50.732;10.174;2022-10-16T05:19:41;97745.28;;;17.51;93.59
19884;BME280;10104;50.732;10.174;2022-10-16T05:22:03;97740.03;;;17.56;92.73
19884;BME280;10104;50.732;10.174;2022-10-16T05:24:25;97733.28;;;17.53;92.61
19884;BME280;10104;50.732;10.174;2022-10-16T05:26:47;97737.88;;;17.29;93.41
19884;BME280;10104;50.732;10.174;2022-10-16T05:29:09;97752.44;;;17.33;92.77
19884;BME280;10104;50.732;10.174;2022-10-16T05:31:30;97746.59;;;17.25;93.11
19884;BME280;10104;50.732;10.174;2022-10-16T05:33:52;97751.59;;;17.10;93.76
19884;BME280;10104;50.732;10.174;2022-10-16T05:36:13;97747.53;;;17.07;94.30
19884;BME280;10104;50.732;10.174;2022-10-16T05:38:35;97740.44;;;17.13;93.97
19884;BME280;10104;50.732;10.174;2022-10-16T05:40:57;97734.88;;;17.14;93.47
19884;BME280;10104;50.732;10.174;2022-10-16T05:43:20;97733.94;;;17.20;92.57
19884;BME280;10104;50.732;10.174;2022-10-16T05:45:41;97750.09;;;17.14;93.01
19884;BME280;10104;50.732;10.174;2022-10-16T05:48:03;97740.69;;;16.99;93.98
19884;BME280;10104;50.732;10.174;2022-10-16T05:50:25;97753.81;;;17.01;94.27
19884;BME280;10104;50.732;10.174;2022-10-16T05:52:46;97753.00;;;17.12;93.74
19884;BME280;10104;50.732;10.174;2022-10-16T05:55:08;97756.28;;;17.14;93.28
19884;BME280;10104;50.732;10.174;2022-10-16T05:57:29;97758.69;;;17.16;93.17
19884;BME280;10104;50.732;10.174;2022-10-16T05:59:51;97764.41;;;17.08;93.96
19884;BME280;10104;50.732;10.174;2022-10-16T06:02:13;97767.31;;;17.06;93.89
19884;BME280;10104;50.732;10.174;2022-10-16T06:04:35;97781.72;;;17.05;93.44
19884;BME280;10104;50.732;10.174;2022-10-16T06:06:59;97774.53;;;16.94;94.17
19884;BME280;10104;50.732;10.174;2022-10-16T06:09:24;97775.56;;;17.05;93.70
19884;BME280;10104;50.732;10.174;2022-10-16T06:11:45;97770.59;;;17.08;93.53
19884;BME280;10104;50.732;10.174;2022-10-16T06:14:08;97767.91;;;17.20;93.16
19884;BME280;10104;50.732;10.174;2022-10-16T06:16:30;97774.41;;;17.24;93.08
19884;BME280;10104;50.732;10.174;2022-10-16T06:18:52;97779.88;;;17.17;92.42
19884;BME280;10104;50.732;10.174;2022-10-16T06:21:17;97788.59;;;17.24;92.29
19884;BME280;10104;50.732;10.174;2022-10-16T06:23:39;97782.78;;;17.39;90.84
19884;BME280;10104;50.732;10.174;2022-10-16T06:26:21;97784.78;;;17.32;91.75
19884;BME280;10104;50.732;10.174;2022-10-16T06:28:44;97786.28;;;17.28;91.71
19884;BME280;10104;50.732;10.174;2022-10-16T06:31:07;97788.16;;;17.27;91.93
19884;BME280;10104;50.732;10.174;2022-10-16T06:33:29;97790.94;;;17.32;91.99
19884;BME280;10104;50.732;10.174;2022-10-16T06:35:51;97802.81;;;17.13;93.06
19884;BME280;10104;50.732;10.174;2022-10-16T06:38:12;97812.34;;;17.21;92.95
19884;BME280;10104;50.732;10.174;2022-10-16T06:40:34;97817.34;;;17.17;93.39
19884;BME280;10104;50.732;10.174;2022-10-16T06:42:56;97805.47;;;17.25;93.20
19884;BME280;10104;50.732;10.174;2022-10-16T06:45:17;97802.00;;;17.24;93.04
19884;BME280;10104;50.732;10.174;2022-10-16T06:47:39;97803.28;;;17.33;93.04
19884;BME280;10104;50.732;10.174;2022-10-16T06:50:00;97815.13;;;17.37;92.82
19884;BME280;10104;50.732;10.174;2022-10-16T06:52:22;97810.38;;;17.51;91.95
19884;BME280;10104;50.732;10.174;2022-10-16T06:54:44;97800.94;;;17.60;91.40
19884;BME280;10104;50.732;10.174;2022-10-16T06:57:05;97800.00;;;17.66;91.29
19884;BME280;10104;50.732;10.174;2022-10-16T06:59:27;97782.31;;;17.65;91.66
19884;BME280;10104;50.732;10.174;2022-10-16T07:04:19;97782.63;;;17.81;90.54
19884;BME280;10104;50.732;10.174;2022-10-16T07:06:40;97806.03;;;17.85;90.57
19884;BME280;10104;50.732;10.174;2022-10-16T07:09:05;97818.19;;;17.76;91.19
19884;BME280;10104;50.732;10.174;2022-10-16T07:11:27;97826.34;;;17.69;91.84
19884;BME280;10104;50.732;10.174;2022-10-16T07:13:49;97807.22;;;17.66;92.02
19884;BME280;10104;50.732;10.174;2022-10-16T07:16:18;97805.75;;;17.98;90.43
19884;BME280;10104;50.732;10.174;2022-10-16T07:18:41;97813.06;;;18.14;89.02
19884;BME280;10104;50.732;10.174;2022-10-16T07:21:08;97819.97;;;17.99;90.31
19884;BME280;10104;50.732;10.174;2022-10-16T07:23:29;97829.91;;;17.87;90.96
19884;BME280;10104;50.732;10.174;2022-10-16T07:25:56;97836.91;;;17.88;91.14
19884;BME280;10104;50.732;10.174;2022-10-16T07:28:18;97836.06;;;17.99;90.54
19884;BME280;10104;50.732;10.174;2022-10-16T07:30:40;97852.50;;;17.91;91.33
19884;BME280;10104;50.732;10.174;2022-10-16T07:33:01;97843.50;;;17.97;91.20
19884;BME280;10104;50.732;10.174;2022-10-16T07:35:23;97846.75;;;18.10;90.86
19884;BME280;10104;50.732;10.174;2022-10-16T07:37:45;97857.09;;;18.18;90.87
19884;BME280;10104;50.732;10.174;2022-10-16T07:40:08;97864.66;;;18.22;90.33
19884;BME280;10104;50.732;10.174;2022-10-16T07:42:29;97867.59;;;18.20;91.14
19884;BME280;10104;50.732;10.174;2022-10-16T07:44:51;97868.13;;;18.34;90.93
19884;BME280;10104;50.732;10.174;2022-10-16T07:47:12;97868.97;;;18.23;91.62
19884;BME280;10104;50.732;10.174;2022-10-16T07:49:34;97872.09;;;18.31;91.40
19884;BME280;10104;50.732;10.174;2022-10-16T07:51:56;97871.25;;;18.42;90.95
19884;BME280;10104;50.732;10.174;2022-10-16T07:54:17;97862.91;;;18.67;89.52
19884;BME280;10104;50.732;10.174;2022-10-16T07:56:39;97869.50;;;18.76;89.29
19884;BME280;10104;50.732;10.174;2022-10-16T07:59:04;97875.66;;;18.77;89.83
19884;BME280;10104;50.732;10.174;2022-10-16T08:01:25;97871.28;;;18.71;90.35
19884;BME280;10104;50.732;10.174;2022-10-16T08:03:49;97870.06;;;18.78;90.28
19884;BME280;10104;50.732;10.174;2022-10-16T08:06:11;97864.31;;;18.70;91.42
19884;BME280;10104;50.732;10.174;2022-10-16T08:08:33;97870.41;;;18.82;90.92
19884;BME280;10104;50.732;10.174;2022-10-16T08:10:55;97882.22;;;18.97;90.35
19884;BME280;10104;50.732;10.174;2022-10-16T08:13:16;97883.09;;;18.86;90.88
19884;BME280;10104;50.732;10.174;2022-10-16T08:15:38;97887.59;;;18.97;90.71
19884;BME280;10104;50.732;10.174;2022-10-16T08:18:01;97886.78;;;19.14;89.24
19884;BME280;10104;50.732;10.174;2022-10-16T08:20:24;97878.41;;;19.27;88.67
19884;BME280;10104;50.732;10.174;2022-10-16T08:22:46;97875.50;;;19.28;88.86
19884;BME280;10104;50.732;10.174;2022-10-16T08:25:07;97876.16;;;19.19;89.62
19884;BME280;10104;50.732;10.174;2022-10-16T08:27:33;97872.56;;;19.30;89.21
19884;BME280;10104;50.732;10.174;2022-10-16T08:29:54;97887.66;;;19.48;88.61
19884;BME280;10104;50.732;10.174;2022-10-16T08:32:16;97889.19;;;19.60;88.10
19884;BME280;10104;50.732;10.174;2022-10-16T08:34:37;97893.28;;;19.46;89.05
19884;BME280;10104;50.732;10.174;2022-10-16T08:36:59;97893.97;;;19.42;89.61
19884;BME280;10104;50.732;10.174;2022-10-16T08:39:21;97912.34;;;19.33;89.77
19884;BME280;10104;50.732;10.174;2022-10-16T08:41:56;97914.16;;;19.27;91.01
19884;BME280;10104;50.732;10.174;2022-10-16T08:49:12;97916.63;;;19.46;91.69
19884;BME280;10104;50.732;10.174;2022-10-16T08:51:37;97916.78;;;19.72;90.27
19884;BME280;10104;50.732;10.174;2022-10-16T08:54:08;97910.84;;;19.87;89.79
19884;BME280;10104;50.732;10.174;2022-10-16T08:56:37;97916.06;;;20.15;89.00
19884;BME280;10104;50.732;10.174;2022-10-16T08:58:59;97912.28;;;20.33;87.60
19884;BME280;10104;50.732;10.174;2022-10-16T09:01:29;97926.00;;;20.15;88.06
19884;BME280;10104;50.732;10.174;2022-10-16T09:19:51;97945.94;;;20.19;87.87
19884;BME280;10104;50.732;10.174;2022-10-16T09:22:16;97940.56;;;20.36;87.16
19884;BME280;10104;50.732;10.174;2022-10-16T09:24:38;97942.91;;;20.49;87.23
19884;BME280;10104;50.732;10.174;2022-10-16T09:26:59;97945.66;;;20.81;84.86
19884;BME280;10104;50.732;10.174;2022-10-16T09:29:23;97947.50;;;20.53;86.90
19884;BME280;10104;50.732;10.174;2022-10-16T09:31:47;97947.63;;;20.42;88.07
19884;BME280;10104;50.732;10.174;2022-10-16T09:34:33;97948.50;;;20.09;90.18
19884;BME280;10104;50.732;10.174;2022-10-16T09:36:57;97954.44;;;20.11;90.86
19884;BME280;10104;50.732;10.174;2022-10-16T09:39:20;97958.53;;;19.97;91.52
19884;BME280;10104;50.732;10.174;2022-10-16T09:41:44;97956.03;;;19.90;92.65
19884;BME280;10104;50.732;10.174;2022-10-16T09:44:28;97957.00;;;19.84;92.78
19884;BME280;10104;50.732;10.174;2022-10-16T09:47:01;97961.38;;;19.57;95.56
19884;BME280;10104;50.732;10.174;2022-10-16T09:49:25;97970.00;;;19.42;96.18
19884;BME280;10104;50.732;10.174;2022-10-16T09:51:47;97967.69;;;19.62;95.78
19884;BME280;10104;50.732;10.174;2022-10-16T09:56:32;97984.09;;;19.21;97.82
19884;BME280;10104;50.732;10.174;2022-10-16T09:59:00;97989.31;;;18.82;100.00
19884;BME280;10104;50.732;10.174;2022-10-16T10:01:30;97992.78;;;18.83;100.00
19884;BME280;10104;50.732;10.174;2022-10-16T10:03:55;97998.41;;;18.81;100.00
19884;BME280;10104;50.732;10.174;2022-10-16T10:06:25;97999.13;;;18.65;100.00
19884;BME280;10104;50.732;10.174;2022-10-16T10:08:58;98005.44;;;18.59;100.00
19884;BME280;10104;50.732;10.174;2022-10-16T10:11:37;98006.13;;;18.54;100.00
19884;BME280;10104;50.732;10.174;2022-10-16T10:14:08;98009.50;;;18.50;100.00
19884;BME280;10104;50.732;10.174;2022-10-16T10:16:32;98004.59;;;18.47;100.00
19884;BME280;10104;50.732;10.174;2022-10-16T10:19:00;98004.38;;;18.48;100.00
19884;BME280;10104;50.732;10.174;2022-10-16T10:21:21;98019.19;;;18.51;100.00
19884;BME280;10104;50.732;10.174;2022-10-16T10:23:43;98012.88;;;18.45;100.00
19884;BME280;10104;50.732;10.174;2022-10-16T10:26:16;98022.31;;;18.71;100.00
19884;BME280;10104;50.732;10.174;2022-10-16T10:29:06;98012.63;;;18.82;100.00
19884;BME280;10104;50.732;10.174;2022-10-16T10:31:47;98003.19;;;19.08;100.00
19884;BME280;10104;50.732;10.174;2022-10-16T10:37:14;98016.53;;;19.59;98.15
19884;BME280;10104;50.732;10.174;2022-10-16T10:39:48;98014.66;;;19.76;98.09
19884;BME280;10104;50.732;10.174;2022-10-16T10:45:03;98003.25;;;20.36;96.42
19884;BME280;10104;50.732;10.174;2022-10-16T10:51:07;98018.16;;;20.66;94.74
19884;BME280;10104;50.732;10.174;2022-10-16T10:54:01;98025.31;;;20.77;95.04
19884;BME280;10104;50.732;10.174;2022-10-16T11:07:22;98036.50;;;21.93;86.04
19884;BME280;10104;50.732;10.174;2022-10-16T11:09:59;98037.09;;;22.27;86.01
19884;BME280;10104;50.732;10.174;2022-10-16T11:12:31;98037.38;;;22.30;84.40
19884;BME280;10104;50.732;10.174;2022-10-16T11:17:28;98035.53;;;22.41;81.86
19884;BME280;10104;50.732;10.174;2022-10-16T11:22:42;98039.50;;;22.28;77.66
19884;BME280;10104;50.732;10.174;2022-10-16T11:25:27;98040.81;;;22.21;78.75
19884;BME280;10104;50.732;10.174;2022-10-16T11:30:49;98028.94;;;21.90;78.73
19884;BME280;10104;50.732;10.174;2022-10-16T11:33:47;98031.81;;;22.10;80.11
19884;BME280;10104;50.732;10.174;2022-10-16T11:36:36;98036.31;;;22.31;79.31
19884;BME280;10104;50.732;10.174;2022-10-16T11:39:10;98035.56;;;22.88;79.21
19884;BME280;10104;50.732;10.174;2022-10-16T11:41:42;98033.41;;;22.90;78.62
19884;BME280;10104;50.732;10.174;2022-10-16T11:49:58;98033.97;;;22.97;76.71
19884;BME280;10104;50.732;10.174;2022-10-16T11:52:44;98029.22;;;23.19;75.52
19884;BME280;10104;50.732;10.174;2022-10-16T11:55:25;98034.03;;;23.07;73.87
19884;BME280;10104;50.732;10.174;2022-10-16T11:57:51;98027.97;;;22.80;75.73
19884;BME280;10104;50.732;10.174;2022-10-16T12:00:23;98021.00;;;22.47;76.07
19884;BME280;10104;50.732;10.174;2022-10-16T12:03:11;98033.13;;;22.86;75.21
19884;BME280;10104;50.732;10.174;2022-10-16T12:05:59;98034.97;;;22.76;72.81
19884;BME280;10104;50.732;10.174;2022-10-16T12:08:23;98030.81;;;22.63;74.21
19884;BME280;10104;50.732;10.174;2022-10-16T12:10:47;98025.56;;;22.41;76.79
19884;BME280;10104;50.732;10.174;2022-10-16T12:13:28;98023.28;;;22.23;76.60
19884;BME280;10104;50.732;10.174;2022-10-16T12:15:49;98027.88;;;22.23;76.92
19884;BME280;10104;50.732;10.174;2022-10-16T12:18:23;98026.75;;;22.13;76.82
19884;BME280;10104;50.732;10.174;2022-10-16T12:20:55;98024.72;;;21.99;77.15
19884;BME280;10104;50.732;10.174;2022-10-16T12:23:21;98031.53;;;22.06;76.98
19884;BME280;10104;50.732;10.174;2022-10-16T12:25:54;98031.44;;;21.64;77.83
19884;BME280;10104;50.732;10.174;2022-10-16T12:28:21;98035.38;;;21.57;80.04
19884;BME280;10104;50.732;10.174;2022-10-16T12:30:52;98037.22;;;21.51;80.39
19884;BME280;10104;50.732;10.174;2022-10-16T12:33:22;98032.66;;;21.52;80.89
19884;BME280;10104;50.732;10.174;2022-10-16T12:35:44;98026.22;;;21.31;80.50
19884;BME280;10104;50.732;10.174;2022-10-16T12:38:18;98033.19;;;21.27;80.49
19884;BME280;10104;50.732;10.174;2022-10-16T12:40:41;98033.88;;;21.17;79.37
19884;BME280;10104;50.732;10.174;2022-10-16T12:46:05;98034.06;;;21.32;80.67
19884;BME280;10104;50.732;10.174;2022-10-16T12:48:42;98035.19;;;21.36;79.53
19884;BME280;10104;50.732;10.174;2022-10-16T12:53:43;98044.78;;;22.08;77.39
19884;BME280;10104;50.732;10.174;2022-10-16T12:56:22;98029.34;;;22.40;75.87
19884;BME280;10104;50.732;10.174;2022-10-16T12:59:16;98034.19;;;22.38;75.23
19884;BME280;10104;50.732;10.174;2022-10-16T13:02:14;98039.78;;;22.27;75.09
19884;BME280;10104;50.732;10.174;2022-10-16T13:07:43;98047.72;;;22.06;75.44
19884;BME280;10104;50.732;10.174;2022-10-16T13:15:29;98055.78;;;22.38;76.43
19884;BME280;10104;50.732;10.174;2022-10-16T13:18:12;98055.31;;;21.83;78.04
19884;BME280;10104;50.732;10.174;2022-10-16T13:21:18;98071.41;;;21.72;79.93
19884;BME280;10104;50.732;10.174;2022-10-16T13:28:42;98069.28;;;21.79;80.18
19884;BME280;10104;50.732;10.174;2022-10-16T13:31:04;98070.19;;;21.58;79.36
19884;BME280;10104;50.732;10.174;2022-10-16T13:33:38;98068.53;;;21.84;79.15
19884;BME280;10104;50.732;10.174;2022-10-16T13:36:00;98058.56;;;21.85;79.65
19884;BME280;10104;50.732;10.174;2022-10-16T13:38:30;98061.13;;;21.96;78.28
19884;BME280;10104;50.732;10.174;2022-10-16T13:40:56;98058.25;;;21.81;79.23
19884;BME280;10104;50.732;10.174;2022-10-16T13:43:31;98060.78;;;22.19;79.22
19884;BME280;10104;50.732;10.174;2022-10-16T13:45:55;98063.72;;;22.18;77.58
19884;BME280;10104;50.732;10.174;2022-10-16T13:48:17;98054.53;;;22.14;77.33
19884;BME280;10104;50.732;10.174;2022-10-16T13:50:38;98061.34;;;21.95;79.34
19884;BME280;10104;50.732;10.174;2022-10-16T13:53:10;98065.19;;;21.99;79.35
19884;BME280;10104;50.732;10.174;2022-10-16T13:55:34;98076.06;;;22.09;78.70
19884;BME280;10104;50.732;10.174;2022-10-16T13:58:08;98077.84;;;21.98;79.51
19884;BME280;10104;50.732;10.174;2022-10-16T14:00:29;98084.41;;;22.07;79.52
19884;BME280;10104;50.732;10.174;2022-10-16T14:03:05;98090.94;;;21.85;79.97
19884;BME280;10104;50.732;10.174;2022-10-16T14:05:28;98087.28;;;21.96;81.28
19884;BME280;10104;50.732;10.174;2022-10-16T14:07:50;98090.41;;;21.88;80.21
19884;BME280;10104;50.732;10.174;2022-10-16T14:10:23;98089.09;;;21.90;79.87